createdAt,value
2022-11-25T00:01:06.503Z,2.85
2022-11-25T00:03:35.657Z,2.63
2022-11-25T00:06:14.687Z,3.95
2022-11-25T00:08:43.767Z,4.60
2022-11-25T00:11:14.438Z,2.90
2022-11-25T00:13:43.488Z,1.83
2022-11-25T00:16:13.348Z,3.03
2022-11-25T00:18:42.372Z,1.85
2022-11-25T00:21:11.963Z,1.50
2022-11-25T00:23:40.880Z,2.47
2022-11-25T00:26:10.193Z,2.13
2022-11-25T00:28:40.547Z,2.20
2022-11-25T00:31:11.986Z,2.20
2022-11-25T00:33:40.979Z,2.65
2022-11-25T00:36:16.253Z,1.90
2022-11-25T00:38:44.972Z,2.55
2022-11-25T00:41:31.429Z,1.73
2022-11-25T00:44:19.001Z,2.75
2022-11-25T00:46:47.711Z,2.95
2022-11-25T00:49:16.352Z,2.85
2022-11-25T00:51:44.932Z,2.78
2022-11-25T00:54:13.662Z,1.63
2022-11-25T00:56:42.516Z,2.80
2022-11-25T00:59:12.723Z,2.15
2022-11-25T01:01:41.360Z,1.77
2022-11-25T01:04:10.262Z,2.38
2022-11-25T01:06:39.714Z,1.73
2022-11-25T01:09:09.309Z,2.67
2022-11-25T01:11:40.702Z,2.83
2022-11-25T01:14:12.372Z,2.42
2022-11-25T01:16:41.049Z,2.35
2022-11-25T01:19:10.048Z,2.03
2022-11-25T01:21:41.048Z,2.40
2022-11-25T01:24:15.319Z,2.60
2022-11-25T01:26:44.083Z,2.03
2022-11-25T01:29:16.907Z,3.63
2022-11-25T01:31:46.219Z,2.28
2022-11-25T01:34:15.730Z,2.67
2022-11-25T01:36:44.508Z,2.33
2022-11-25T01:39:15.377Z,2.33
2022-11-25T01:41:43.962Z,1.55
2022-11-25T01:44:14.402Z,1.45
2022-11-25T01:46:53.460Z,1.75
2022-11-25T01:49:24.374Z,1.88
2022-11-25T01:51:54.479Z,1.55
2022-11-25T01:54:25.010Z,2.20
2022-11-25T01:56:56.202Z,1.88
2022-11-25T02:01:54.996Z,2.33
2022-11-25T02:04:25.720Z,1.75
2022-11-25T02:06:57.091Z,1.30
2022-11-25T02:11:54.482Z,1.65
2022-11-25T02:14:24.110Z,1.42
2022-11-25T02:16:55.378Z,2.53
2022-11-25T02:19:25.656Z,2.90
2022-11-25T02:21:56.844Z,2.22
2022-11-25T02:24:30.158Z,2.75
2022-11-25T02:27:00.895Z,2.15
2022-11-25T02:29:29.876Z,1.83
2022-11-25T02:31:58.814Z,1.77
2022-11-25T02:34:27.488Z,1.67
2022-11-25T02:36:56.935Z,2.42
2022-11-25T02:39:25.565Z,2.63
2022-11-25T02:41:56.352Z,2.92
2022-11-25T02:44:26.337Z,1.08
2022-11-25T02:46:55.403Z,3.03
2022-11-25T02:49:24.230Z,2.45
2022-11-25T02:51:53.615Z,1.83
2022-11-25T02:54:22.185Z,1.63
2022-11-25T02:56:51.119Z,1.63
2022-11-25T02:59:19.688Z,1.60
2022-11-25T03:01:50.661Z,1.88
2022-11-25T03:04:19.429Z,1.80
2022-11-25T03:06:47.985Z,1.10
2022-11-25T03:09:16.703Z,1.42
2022-11-25T03:12:02.806Z,2.40
2022-11-25T03:14:31.496Z,1.88
2022-11-25T03:17:01.649Z,2.10
2022-11-25T03:19:30.520Z,1.15
2022-11-25T03:21:59.089Z,1.88
2022-11-25T03:24:27.698Z,2.72
2022-11-25T03:26:56.367Z,1.98
2022-11-25T03:29:24.953Z,1.85
2022-11-25T03:31:54.232Z,2.55
2022-11-25T03:34:24.551Z,1.55
2022-11-25T03:36:53.250Z,2.67
2022-11-25T03:39:25.088Z,1.92
2022-11-25T03:41:53.741Z,3.13
2022-11-25T03:44:22.856Z,2.65
2022-11-25T03:46:53.399Z,2.13
2022-11-25T03:49:22.309Z,2.40
2022-11-25T03:51:52.365Z,2.17
2022-11-25T03:57:16.826Z,2.22
2022-11-25T03:59:45.461Z,2.17
2022-11-25T04:02:14.283Z,1.83
2022-11-25T04:04:42.975Z,3.83
2022-11-25T04:07:12.932Z,1.83
2022-11-25T04:09:42.541Z,1.63
2022-11-25T04:12:29.904Z,2.60
2022-11-25T04:15:07.579Z,1.92
2022-11-25T04:17:36.321Z,1.80
2022-11-25T04:20:05.227Z,2.47
2022-11-25T04:22:35.619Z,1.98
2022-11-25T04:25:07.457Z,2.25
2022-11-25T04:27:36.068Z,2.85
2022-11-25T04:30:04.742Z,4.05
2022-11-25T04:32:35.729Z,4.15
2022-11-25T04:35:04.475Z,3.15
2022-11-25T04:37:33.088Z,2.65
2022-11-25T04:40:03.227Z,3.38
2022-11-25T04:42:36.679Z,1.88
2022-11-25T04:45:24.866Z,2.15
2022-11-25T04:47:55.981Z,2.88
2022-11-25T04:50:25.798Z,4.32
2022-11-25T04:53:09.320Z,2.67
2022-11-25T04:55:39.319Z,3.60
2022-11-25T04:58:13.029Z,2.17
2022-11-25T05:00:42.378Z,1.95
2022-11-25T05:03:13.889Z,4.30
2022-11-25T05:05:42.464Z,2.78
2022-11-25T05:08:11.197Z,2.92
2022-11-25T05:10:42.192Z,2.33
2022-11-25T05:13:10.726Z,2.63
2022-11-25T05:15:39.279Z,2.95
2022-11-25T05:18:10.687Z,2.00
2022-11-25T05:20:47.659Z,2.47
2022-11-25T05:23:19.491Z,3.15
2022-11-25T05:25:49.533Z,2.03
2022-11-25T05:28:27.481Z,2.13
2022-11-25T05:30:56.221Z,2.80
2022-11-25T05:33:24.963Z,2.47
2022-11-25T05:35:58.356Z,2.03
2022-11-25T05:38:31.443Z,1.92
2022-11-25T05:41:04.530Z,4.18
2022-11-25T05:43:33.279Z,1.85
2022-11-25T05:46:06.036Z,2.53
2022-11-25T05:48:36.683Z,1.88
2022-11-25T05:51:05.887Z,2.42
2022-11-25T05:53:34.994Z,2.97
2022-11-25T05:56:07.300Z,2.40
2022-11-25T05:59:08.642Z,2.85
2022-11-25T06:01:54.716Z,2.75
2022-11-25T06:04:23.390Z,1.85
2022-11-25T06:06:51.952Z,2.17
2022-11-25T06:09:20.541Z,3.00
2022-11-25T06:11:50.538Z,1.65
2022-11-25T06:14:20.185Z,2.50
2022-11-25T06:16:50.890Z,2.57
2022-11-25T06:19:31.680Z,4.40
2022-11-25T06:22:00.420Z,5.63
2022-11-25T06:24:30.960Z,11.18
2022-11-25T06:27:05.682Z,7.20
2022-11-25T06:29:35.841Z,6.72
2022-11-25T06:32:04.518Z,4.93
2022-11-25T06:34:59.182Z,3.10
2022-11-25T06:37:37.273Z,4.40
2022-11-25T06:40:06.400Z,2.45
2022-11-25T06:42:36.503Z,3.67
2022-11-25T06:45:05.160Z,1.90
2022-11-25T06:47:33.758Z,2.53
2022-11-25T06:50:02.502Z,3.15
2022-11-25T06:52:32.091Z,2.15
2022-11-25T06:55:00.659Z,3.78
2022-11-25T06:57:29.324Z,2.65
2022-11-25T06:59:59.533Z,2.28
2022-11-25T07:02:28.572Z,2.80
2022-11-25T07:04:57.368Z,2.30
2022-11-25T07:07:26.141Z,2.78
2022-11-25T07:09:54.752Z,2.97
2022-11-25T07:12:23.393Z,2.45
2022-11-25T07:14:52.403Z,2.22
2022-11-25T07:17:22.360Z,38.92
2022-11-25T07:19:50.947Z,7.05
2022-11-25T07:22:19.514Z,6.45
2022-11-25T07:24:48.200Z,6.28
2022-11-25T07:27:16.772Z,5.35
2022-11-25T07:30:18.652Z,3.95
2022-11-25T07:32:36.194Z,3.78
2022-11-25T07:35:05.004Z,3.00
2022-11-25T07:37:33.558Z,3.17
2022-11-25T07:40:02.121Z,2.08
2022-11-25T07:42:30.693Z,2.67
2022-11-25T07:44:59.315Z,1.92
2022-11-25T07:47:44.052Z,2.75
2022-11-25T07:50:12.750Z,2.13
2022-11-25T07:52:41.961Z,3.13
2022-11-25T07:55:11.146Z,2.47
2022-11-25T07:57:39.640Z,3.05
2022-11-25T08:00:09.103Z,3.30
2022-11-25T08:02:40.466Z,2.17
2022-11-25T08:05:11.794Z,3.33
2022-11-25T08:07:40.477Z,2.72
2022-11-25T08:10:09.424Z,4.78
2022-11-25T08:12:38.027Z,3.05
2022-11-25T08:15:06.897Z,5.10
2022-11-25T08:17:35.524Z,3.13
2022-11-25T08:20:04.132Z,3.00
2022-11-25T08:22:34.556Z,2.80
2022-11-25T08:25:03.193Z,3.05
2022-11-25T08:27:31.794Z,3.70
2022-11-25T08:30:00.490Z,3.25
2022-11-25T08:32:29.128Z,2.55
2022-11-25T08:34:58.155Z,2.40
2022-11-25T08:37:27.039Z,3.28
2022-11-25T08:39:57.379Z,3.20
2022-11-25T08:42:27.077Z,1.77
2022-11-25T08:44:56.574Z,2.33
2022-11-25T08:47:25.773Z,2.92
2022-11-25T08:49:54.606Z,2.45
2022-11-25T08:52:24.762Z,3.28
2022-11-25T08:54:53.328Z,3.83
2022-11-25T08:57:23.284Z,3.90
2022-11-25T08:59:52.053Z,3.00
2022-11-25T09:02:20.725Z,2.83
2022-11-25T09:04:49.446Z,4.30
2022-11-25T09:07:18.157Z,2.20
2022-11-25T09:09:46.789Z,2.13
2022-11-25T09:12:15.456Z,2.83
2022-11-25T09:14:45.362Z,2.10
2022-11-25T09:17:15.696Z,2.55
2022-11-25T09:19:44.241Z,2.88
2022-11-25T09:22:12.800Z,3.28
2022-11-25T09:24:43.668Z,3.58
2022-11-25T09:27:12.282Z,3.47
2022-11-25T09:29:41.011Z,4.18
2022-11-25T09:32:11.175Z,4.75
2022-11-25T09:34:39.799Z,3.95
2022-11-25T09:37:08.387Z,2.72
2022-11-25T09:39:37.491Z,4.18
2022-11-25T09:42:30.185Z,5.18
2022-11-25T09:45:20.954Z,3.65
2022-11-25T09:47:57.790Z,5.77
2022-11-25T09:50:29.982Z,3.60
2022-11-25T09:53:04.247Z,4.53
2022-11-25T09:55:35.506Z,4.30
2022-11-25T09:58:08.288Z,4.40
2022-11-25T10:00:39.796Z,3.55
2022-11-25T10:03:14.916Z,5.15
2022-11-25T10:05:45.747Z,3.92
2022-11-25T10:08:16.323Z,5.05
2022-11-25T10:10:46.783Z,5.68
2022-11-25T10:13:19.114Z,3.67
2022-11-25T10:15:50.636Z,4.28
2022-11-25T10:20:51.535Z,4.75
2022-11-25T10:23:27.833Z,5.53
2022-11-25T10:25:59.175Z,3.28
2022-11-25T10:28:31.828Z,4.77
2022-11-25T10:31:02.567Z,3.05
2022-11-25T10:33:34.037Z,6.95
2022-11-25T10:36:09.881Z,4.00
2022-11-25T10:38:41.823Z,2.83
2022-11-25T10:41:14.731Z,3.90
2022-11-25T10:43:43.995Z,3.60
2022-11-25T10:46:16.744Z,2.92
2022-11-25T10:48:55.205Z,3.40
2022-11-25T10:51:33.926Z,3.17
2022-11-25T10:54:12.669Z,2.08
2022-11-25T10:56:45.291Z,3.72
2022-11-25T10:59:23.198Z,4.60
2022-11-25T11:01:53.547Z,3.83
2022-11-25T11:04:22.392Z,2.78
2022-11-25T11:06:52.472Z,2.78
2022-11-25T11:09:34.835Z,2.38
2022-11-25T11:12:10.032Z,2.75
2022-11-25T11:14:38.833Z,2.00
2022-11-25T11:17:07.785Z,3.33
2022-11-25T11:19:36.294Z,2.83
2022-11-25T11:22:18.400Z,4.55
2022-11-25T11:24:47.031Z,2.90
2022-11-25T11:27:18.431Z,4.15
2022-11-25T11:29:47.142Z,4.93
2022-11-25T11:32:22.710Z,4.85
2022-11-25T11:34:55.857Z,3.40
2022-11-25T11:37:34.223Z,6.43
2022-11-25T11:40:16.305Z,8.18
2022-11-25T11:42:49.234Z,8.48
2022-11-25T11:45:28.616Z,8.20
2022-11-25T11:48:03.135Z,5.97
2022-11-25T11:50:33.747Z,6.78
2022-11-25T11:53:07.985Z,6.50
2022-11-25T11:56:11.945Z,6.07
2022-11-25T11:58:55.224Z,6.97
2022-11-25T12:01:31.473Z,4.63
2022-11-25T12:04:02.644Z,4.78
2022-11-25T12:06:33.583Z,4.40
2022-11-25T12:09:05.738Z,5.18
2022-11-25T12:11:37.080Z,3.85
2022-11-25T12:14:08.802Z,3.58
2022-11-25T12:16:39.987Z,3.17
2022-11-25T12:19:13.121Z,4.50
2022-11-25T12:21:45.641Z,3.33
2022-11-25T12:24:22.809Z,4.00
2022-11-25T12:26:53.278Z,3.40
2022-11-25T12:29:26.016Z,3.08
2022-11-25T12:31:57.837Z,2.38
2022-11-25T12:34:30.786Z,3.00
2022-11-25T12:37:09.451Z,2.97
2022-11-25T12:39:43.305Z,3.13
2022-11-25T12:42:15.784Z,3.55
2022-11-25T12:44:48.052Z,3.40
2022-11-25T12:47:16.745Z,3.50
2022-11-25T12:49:45.952Z,2.30
2022-11-25T12:52:26.886Z,2.50
2022-11-25T12:55:07.697Z,4.00
2022-11-25T12:57:56.998Z,5.07
2022-11-25T13:00:44.732Z,2.97
2022-11-25T13:03:46.646Z,2.58
2022-11-25T13:06:23.295Z,2.47
2022-11-25T13:08:57.530Z,3.13
2022-11-25T13:11:36.721Z,4.20
2022-11-25T13:14:10.992Z,2.65
2022-11-25T13:16:40.727Z,3.67
2022-11-25T13:19:11.835Z,2.38
2022-11-25T13:21:55.302Z,2.17
2022-11-25T13:24:28.813Z,3.03
2022-11-25T13:26:58.716Z,3.58
2022-11-25T13:29:57.315Z,3.25
2022-11-25T13:32:27.276Z,2.80
2022-11-25T13:35:29.636Z,4.20
2022-11-25T13:37:58.273Z,3.95
2022-11-25T13:40:35.707Z,3.40
2022-11-25T13:43:06.121Z,4.85
2022-11-25T13:45:35.884Z,3.17
2022-11-25T13:48:08.790Z,3.17
2022-11-25T13:51:03.592Z,3.35
2022-11-25T13:53:34.563Z,3.88
2022-11-25T13:56:14.472Z,3.83
2022-11-25T13:59:04.465Z,5.82
2022-11-25T14:01:34.716Z,6.53
2022-11-25T14:04:06.402Z,4.72
2022-11-25T14:09:05.308Z,5.05
2022-11-25T14:11:44.905Z,2.75
2022-11-25T14:14:29.625Z,3.90
2022-11-25T14:17:07.278Z,3.55
2022-11-25T14:20:00.454Z,4.10
2022-11-25T14:22:42.668Z,3.83
2022-11-25T14:25:16.277Z,2.85
2022-11-25T14:27:47.947Z,3.53
2022-11-25T14:32:49.872Z,5.65
2022-11-25T14:35:20.426Z,4.10
2022-11-25T14:37:51.687Z,3.13
2022-11-25T14:40:21.336Z,5.10
2022-11-25T14:42:51.954Z,4.13
2022-11-25T14:45:24.945Z,4.50
2022-11-25T14:47:55.457Z,3.97
2022-11-25T14:50:40.623Z,6.55
2022-11-25T14:53:10.882Z,5.78
2022-11-25T14:55:39.823Z,2.78
2022-11-25T14:58:08.495Z,6.88
2022-11-25T15:00:39.752Z,6.10
2022-11-25T15:03:19.771Z,5.82
2022-11-25T15:05:55.339Z,6.45
2022-11-25T15:08:24.493Z,7.32
2022-11-25T15:10:54.050Z,5.60
2022-11-25T15:13:29.184Z,7.63
2022-11-25T15:16:00.120Z,6.10
2022-11-25T15:18:30.103Z,6.43
2022-11-25T15:21:00.113Z,8.98
2022-11-25T15:23:32.032Z,4.55
2022-11-25T15:26:01.353Z,8.73
2022-11-25T15:28:35.422Z,4.10
2022-11-25T15:31:04.835Z,5.63
2022-11-25T15:33:34.887Z,6.10
2022-11-25T15:36:03.459Z,4.13
2022-11-25T15:38:37.591Z,3.47
2022-11-25T15:41:06.865Z,5.28
2022-11-25T15:43:36.446Z,4.97
2022-11-25T15:46:06.905Z,5.93
2022-11-25T15:48:39.930Z,4.65
2022-11-25T15:51:22.487Z,7.88
2022-11-25T15:53:55.279Z,6.78
2022-11-25T15:56:25.075Z,5.53
2022-11-25T15:58:58.622Z,4.38
2022-11-25T16:01:30.984Z,6.63
2022-11-25T16:04:13.154Z,5.60
2022-11-25T16:06:53.999Z,5.32
2022-11-25T16:09:25.214Z,10.00
2022-11-25T16:11:53.875Z,7.03
2022-11-25T16:14:27.060Z,10.10
2022-11-25T16:16:57.751Z,7.15
2022-11-25T16:19:35.061Z,6.60
2022-11-25T16:22:06.480Z,7.47
2022-11-25T16:24:40.132Z,6.13
2022-11-25T16:27:16.786Z,6.50
2022-11-25T16:29:54.048Z,6.38
2022-11-25T16:32:23.645Z,4.97
2022-11-25T16:34:56.101Z,6.32
2022-11-25T16:37:24.841Z,6.82
2022-11-25T16:39:53.600Z,5.78
2022-11-25T16:42:23.045Z,4.05
2022-11-25T16:44:52.635Z,6.15
2022-11-25T16:47:22.109Z,5.38
2022-11-25T16:49:50.795Z,6.07
2022-11-25T16:52:21.391Z,5.60
2022-11-25T16:54:50.038Z,5.17
2022-11-25T16:57:21.003Z,13.80
2022-11-25T16:59:55.805Z,816.58
2022-11-25T17:02:27.009Z,349.17
2022-11-25T17:04:55.778Z,542.42
2022-11-25T17:07:35.755Z,524.00
2022-11-25T17:10:05.461Z,320.55
2022-11-25T17:12:35.305Z,240.45
2022-11-25T17:15:05.591Z,230.38
2022-11-25T17:17:34.546Z,156.77
2022-11-25T17:20:03.296Z,106.65
2022-11-25T17:22:39.065Z,130.82
2022-11-25T17:25:08.352Z,96.88
2022-11-25T17:27:37.443Z,98.93
2022-11-25T17:30:07.384Z,67.68
2022-11-25T17:32:36.369Z,130.18
2022-11-25T17:35:04.972Z,400.65
2022-11-25T17:37:34.973Z,240.23
2022-11-25T17:40:03.894Z,508.75
2022-11-25T17:42:33.648Z,157.45
2022-11-25T17:45:02.521Z,115.75
2022-11-25T17:47:31.060Z,94.88
2022-11-25T17:50:00.000Z,62.25
2022-11-25T17:52:28.529Z,37.78
2022-11-25T17:54:58.513Z,43.10
2022-11-25T17:57:29.302Z,189.63
2022-11-25T17:59:57.913Z,87.07
2022-11-25T18:02:26.658Z,482.40
2022-11-25T18:04:55.843Z,144.27
2022-11-25T18:07:24.395Z,90.25
2022-11-25T18:09:53.122Z,56.90
2022-11-25T18:12:25.251Z,41.15
2022-11-25T18:14:53.941Z,27.85
2022-11-25T18:17:22.499Z,115.18
2022-11-25T18:19:54.853Z,50.63
2022-11-25T18:22:25.393Z,59.58
2022-11-25T18:24:54.069Z,56.08
2022-11-25T18:27:26.858Z,32.75
2022-11-25T18:29:56.381Z,21.83
2022-11-25T18:32:25.196Z,14.10
2022-11-25T18:34:53.811Z,11.18
2022-11-25T18:37:22.669Z,8.68
2022-11-25T18:39:51.377Z,10.35
2022-11-25T18:42:26.322Z,6.30
2022-11-25T18:44:57.135Z,6.03
2022-11-25T18:47:25.905Z,5.80
2022-11-25T18:49:56.445Z,9.13
2022-11-25T18:52:25.458Z,7.17
2022-11-25T18:54:54.162Z,6.57
2022-11-25T18:57:22.799Z,7.15
2022-11-25T19:00:24.299Z,5.68
2022-11-25T19:02:41.690Z,6.03
2022-11-25T19:05:17.013Z,8.35
2022-11-25T19:07:45.888Z,7.55
2022-11-25T19:10:14.619Z,7.90
2022-11-25T19:12:44.982Z,8.02
2022-11-25T19:15:15.444Z,8.32
2022-11-25T19:17:46.982Z,11.73
2022-11-25T19:20:16.372Z,8.40
2022-11-25T19:22:45.086Z,8.40
2022-11-25T19:25:13.833Z,10.13
2022-11-25T19:27:44.158Z,11.23
2022-11-25T19:30:17.687Z,8.43
2022-11-25T19:32:48.064Z,9.10
2022-11-25T19:35:18.779Z,9.30
2022-11-25T19:37:47.487Z,8.47
2022-11-25T19:40:17.408Z,8.27
2022-11-25T19:42:48.394Z,9.52
2022-11-25T19:45:17.633Z,9.15
2022-11-25T19:47:46.451Z,7.78
2022-11-25T19:50:20.770Z,8.02
2022-11-25T19:52:49.947Z,8.80
2022-11-25T19:55:19.924Z,8.68
2022-11-25T19:57:48.629Z,7.40
2022-11-25T20:00:18.533Z,10.05
2022-11-25T20:02:48.770Z,10.82
2022-11-25T20:05:20.546Z,10.13
2022-11-25T20:07:49.435Z,9.25
2022-11-25T20:10:19.637Z,7.53
2022-11-25T20:12:48.233Z,8.82
2022-11-25T20:15:17.036Z,7.82
2022-11-25T20:17:47.902Z,9.18
2022-11-25T20:20:17.940Z,8.48
2022-11-25T20:22:52.132Z,7.22
2022-11-25T20:25:21.267Z,10.77
2022-11-25T20:27:49.820Z,9.95
2022-11-25T20:30:19.355Z,8.90
2022-11-25T20:32:48.168Z,6.97
2022-11-25T20:35:16.727Z,6.75
2022-11-25T20:37:53.986Z,9.93
2022-11-25T20:40:25.487Z,8.63
2022-11-25T20:42:54.754Z,10.38
2022-11-25T20:45:24.525Z,7.65
2022-11-25T20:47:53.258Z,8.38
2022-11-25T20:50:22.184Z,8.70
2022-11-25T20:52:51.740Z,6.38
2022-11-25T20:55:23.354Z,8.02
2022-11-25T21:00:22.999Z,8.77
2022-11-25T21:02:51.894Z,7.90
2022-11-25T21:05:20.661Z,7.60
2022-11-25T21:07:50.466Z,10.23
2022-11-25T21:10:25.185Z,7.97
2022-11-25T21:12:54.243Z,8.10
2022-11-25T21:15:25.549Z,7.43
2022-11-25T21:17:54.147Z,10.55
2022-11-25T21:20:22.760Z,7.68
2022-11-25T21:22:52.670Z,7.70
2022-11-25T21:25:22.021Z,7.78
2022-11-25T21:27:52.183Z,13.57
2022-11-25T21:30:22.149Z,28.20
2022-11-25T21:32:53.065Z,126.60
2022-11-25T21:35:21.673Z,174.07
2022-11-25T21:37:50.266Z,197.18
2022-11-25T21:40:26.114Z,173.52
2022-11-25T21:42:54.729Z,161.77
2022-11-25T21:45:23.306Z,105.63
2022-11-25T21:47:53.278Z,77.28
2022-11-25T21:50:22.067Z,67.72
2022-11-25T21:52:50.725Z,115.50
2022-11-25T21:55:19.501Z,123.63
2022-11-25T21:57:48.227Z,187.10
2022-11-25T22:00:22.076Z,140.48
2022-11-25T22:02:50.670Z,101.43
2022-11-25T22:05:22.351Z,68.15
2022-11-25T22:10:19.722Z,32.25
2022-11-25T22:12:48.990Z,25.13
2022-11-25T22:15:18.679Z,20.27
2022-11-25T22:17:47.383Z,22.13
2022-11-25T22:20:26.824Z,13.32
2022-11-25T22:22:57.021Z,13.90
2022-11-25T22:25:26.969Z,10.88
2022-11-25T22:27:55.776Z,11.10
2022-11-25T22:30:24.841Z,9.02
2022-11-25T22:32:59.303Z,11.23
2022-11-25T22:35:27.987Z,9.43
2022-11-25T22:37:57.936Z,7.22
2022-11-25T22:40:26.757Z,10.10
2022-11-25T22:42:57.415Z,9.20
2022-11-25T22:45:30.125Z,8.67
2022-11-25T22:47:59.426Z,8.57
2022-11-25T22:50:29.060Z,9.05
2022-11-25T22:52:59.661Z,9.13
2022-11-25T22:55:29.103Z,8.68
2022-11-25T22:57:58.334Z,9.70
2022-11-25T23:00:27.712Z,8.18
2022-11-25T23:02:57.266Z,9.70
2022-11-25T23:05:32.272Z,7.80
2022-11-25T23:08:02.992Z,8.60
2022-11-25T23:10:32.725Z,6.65
2022-11-25T23:13:01.341Z,8.35
2022-11-25T23:15:30.080Z,11.15
2022-11-25T23:18:00.005Z,7.60
2022-11-25T23:20:31.108Z,6.57
2022-11-25T23:22:59.761Z,8.35
2022-11-25T23:25:29.682Z,8.82
2022-11-25T23:27:58.286Z,8.23
2022-11-25T23:30:28.065Z,9.13
2022-11-25T23:32:56.667Z,9.27
2022-11-25T23:35:28.506Z,8.90
2022-11-25T23:37:57.813Z,8.48
2022-11-25T23:40:26.986Z,6.97
2022-11-25T23:42:57.997Z,7.30
2022-11-25T23:45:28.106Z,6.90
2022-11-25T23:47:57.986Z,6.20
2022-11-25T23:50:28.346Z,8.57
2022-11-25T23:52:58.424Z,6.63
2022-11-25T23:55:29.922Z,8.20
2022-11-25T23:58:00.023Z,8.82
